createdAt,value
2022-10-22T00:00:46.480Z,2.92
2022-10-22T00:03:13.870Z,3.05
2022-10-22T00:05:43.468Z,2.85
2022-10-22T00:08:14.363Z,2.53
2022-10-22T00:10:42.508Z,2.65
2022-10-22T00:13:10.981Z,2.87
2022-10-22T00:15:38.346Z,3.35
2022-10-22T00:18:05.882Z,2.10
2022-10-22T00:20:33.303Z,3.60
2022-10-22T00:23:03.323Z,2.40
2022-10-22T00:25:33.006Z,3.28
2022-10-22T00:28:00.361Z,2.42
2022-10-22T00:30:27.696Z,2.85
2022-10-22T00:32:58.227Z,2.28
2022-10-22T00:35:25.558Z,2.92
2022-10-22T00:37:52.911Z,2.17
2022-10-22T00:40:20.299Z,4.13
2022-10-22T00:42:47.670Z,2.42
2022-10-22T00:45:25.753Z,3.53
2022-10-22T00:47:55.988Z,2.13
2022-10-22T00:50:26.039Z,3.03
2022-10-22T00:52:53.757Z,3.67
2022-10-22T00:55:23.527Z,2.85
2022-10-22T00:57:51.084Z,3.22
2022-10-22T01:00:19.062Z,2.65
2022-10-22T01:02:49.021Z,2.90
2022-10-22T01:05:20.000Z,2.92
2022-10-22T01:07:52.143Z,3.45
2022-10-22T01:10:30.089Z,3.55
2022-10-22T01:13:25.100Z,3.63
2022-10-22T01:16:15.782Z,2.63
2022-10-22T01:18:59.309Z,3.45
2022-10-22T01:21:26.736Z,2.22
2022-10-22T01:24:12.831Z,1.92
2022-10-22T01:27:08.967Z,4.03
2022-10-22T01:29:56.483Z,3.28
2022-10-22T01:32:26.186Z,3.53
2022-10-22T01:34:56.353Z,2.70
2022-10-22T01:37:26.874Z,3.13
2022-10-22T01:39:54.633Z,2.70
2022-10-22T01:42:22.050Z,3.47
2022-10-22T01:44:52.395Z,2.92
2022-10-22T01:47:19.760Z,2.45
2022-10-22T01:49:47.053Z,2.85
2022-10-22T01:52:34.705Z,3.33
2022-10-22T01:55:02.109Z,3.22
2022-10-22T01:57:34.350Z,3.50
2022-10-22T02:00:09.751Z,3.35
2022-10-22T02:02:40.875Z,1.85
2022-10-22T02:05:11.405Z,3.13
2022-10-22T02:07:45.671Z,3.00
2022-10-22T02:10:15.505Z,3.83
2022-10-22T02:12:44.417Z,2.50
2022-10-22T02:15:13.258Z,3.72
2022-10-22T02:17:43.052Z,3.60
2022-10-22T02:20:16.938Z,1.65
2022-10-22T02:22:44.411Z,2.45
2022-10-22T02:25:12.481Z,1.88
2022-10-22T02:27:43.532Z,4.07
2022-10-22T02:32:47.946Z,4.22
2022-10-22T02:35:16.730Z,2.30
2022-10-22T02:37:44.421Z,1.35
2022-10-22T02:40:12.089Z,3.47
2022-10-22T02:42:40.752Z,2.70
2022-10-22T02:45:11.126Z,1.90
2022-10-22T02:47:38.580Z,2.88
2022-10-22T02:50:09.444Z,2.47
2022-10-22T02:52:38.064Z,2.75
2022-10-22T02:55:06.199Z,3.63
2022-10-22T02:57:33.886Z,2.35
2022-10-22T03:00:01.297Z,2.58
2022-10-22T03:02:31.161Z,2.45
2022-10-22T03:04:58.522Z,3.22
2022-10-22T03:07:25.997Z,3.53
2022-10-22T03:09:53.334Z,1.88
2022-10-22T03:12:20.685Z,2.13
2022-10-22T03:14:51.358Z,1.95
2022-10-22T03:17:19.899Z,1.70
2022-10-22T03:19:47.234Z,2.22
2022-10-22T03:22:25.134Z,2.88
2022-10-22T03:24:58.550Z,2.15
2022-10-22T03:27:28.980Z,3.08
2022-10-22T03:29:57.439Z,2.75
2022-10-22T03:32:24.866Z,2.10
2022-10-22T03:34:52.231Z,3.58
2022-10-22T03:37:20.008Z,5.07
2022-10-22T03:39:47.511Z,3.53
2022-10-22T03:42:16.356Z,2.67
2022-10-22T03:44:46.536Z,2.53
2022-10-22T03:47:13.914Z,2.63
2022-10-22T03:49:41.474Z,2.65
2022-10-22T03:52:10.239Z,2.90
2022-10-22T03:57:09.540Z,2.72
2022-10-22T03:59:42.753Z,4.05
2022-10-22T04:02:10.830Z,2.92
2022-10-22T04:04:38.352Z,1.70
2022-10-22T04:07:08.631Z,2.58
2022-10-22T04:09:36.408Z,3.58
2022-10-22T04:12:08.050Z,4.47
2022-10-22T04:14:36.535Z,3.33
2022-10-22T04:17:03.861Z,2.80
2022-10-22T04:19:31.241Z,3.10
2022-10-22T04:22:01.313Z,2.78
2022-10-22T04:24:29.789Z,2.60
2022-10-22T04:27:04.455Z,2.22
2022-10-22T04:29:36.811Z,2.58
2022-10-22T04:32:06.643Z,2.63
2022-10-22T04:34:33.947Z,1.45
2022-10-22T04:37:05.000Z,2.70
2022-10-22T04:39:34.990Z,2.75
2022-10-22T04:42:04.794Z,1.92
2022-10-22T04:44:32.179Z,2.80
2022-10-22T04:46:59.739Z,3.28
2022-10-22T04:49:27.182Z,2.70
2022-10-22T04:51:54.652Z,2.97
2022-10-22T04:54:22.130Z,3.60
2022-10-22T04:56:49.558Z,1.88
2022-10-22T04:59:16.939Z,2.05
2022-10-22T05:01:45.323Z,2.90
2022-10-22T05:04:13.709Z,2.25
2022-10-22T05:06:41.071Z,2.42
2022-10-22T05:09:09.997Z,3.10
2022-10-22T05:14:07.977Z,1.83
2022-10-22T05:16:38.167Z,3.05
2022-10-22T05:19:08.440Z,2.33
2022-10-22T05:21:36.271Z,2.25
2022-10-22T05:24:07.210Z,3.22
2022-10-22T05:26:34.576Z,3.75
2022-10-22T05:29:01.862Z,3.80
2022-10-22T05:31:29.619Z,1.92
2022-10-22T05:33:57.024Z,1.40
2022-10-22T05:36:24.459Z,1.92
2022-10-22T05:38:54.120Z,2.08
2022-10-22T05:41:22.816Z,2.50
2022-10-22T05:43:50.535Z,3.05
2022-10-22T05:46:23.044Z,3.33
2022-10-22T05:48:55.047Z,2.63
2022-10-22T05:51:25.344Z,1.85
2022-10-22T05:53:56.003Z,2.38
2022-10-22T05:56:26.773Z,3.10
2022-10-22T05:58:54.381Z,3.40
2022-10-22T06:01:22.941Z,2.85
2022-10-22T06:03:50.352Z,3.42
2022-10-22T06:06:22.181Z,2.75
2022-10-22T06:08:54.197Z,3.70
2022-10-22T06:11:22.131Z,2.08
2022-10-22T06:13:49.932Z,2.88
2022-10-22T06:16:17.602Z,2.88
2022-10-22T06:18:44.944Z,2.03
2022-10-22T06:21:13.305Z,2.65
2022-10-22T06:23:41.654Z,4.07
2022-10-22T06:26:09.376Z,2.50
2022-10-22T06:28:37.071Z,3.38
2022-10-22T06:31:04.889Z,3.38
2022-10-22T06:33:33.104Z,2.22
2022-10-22T06:36:07.886Z,3.45
2022-10-22T06:38:36.704Z,4.80
2022-10-22T06:41:05.380Z,4.78
2022-10-22T06:43:32.735Z,5.38
2022-10-22T06:46:14.693Z,6.50
2022-10-22T06:48:51.268Z,6.32
2022-10-22T06:51:19.084Z,4.07
2022-10-22T06:53:49.616Z,3.70
2022-10-22T06:56:20.525Z,4.03
2022-10-22T06:58:51.359Z,3.38
2022-10-22T07:01:22.513Z,3.40
2022-10-22T07:03:56.262Z,3.72
2022-10-22T07:06:27.289Z,4.50
2022-10-22T07:08:55.530Z,4.45
2022-10-22T07:11:28.539Z,3.42
2022-10-22T07:13:59.806Z,3.10
2022-10-22T07:16:32.361Z,3.47
2022-10-22T07:19:02.731Z,3.50
2022-10-22T07:21:37.910Z,4.18
2022-10-22T07:24:05.544Z,5.47
2022-10-22T07:26:32.980Z,2.97
2022-10-22T07:29:11.934Z,4.03
2022-10-22T07:34:10.132Z,3.25
2022-10-22T07:36:37.646Z,3.42
2022-10-22T07:39:05.364Z,3.80
2022-10-22T07:41:36.995Z,3.00
2022-10-22T07:44:06.742Z,2.90
2022-10-22T07:46:37.211Z,2.35
2022-10-22T07:49:08.902Z,2.17
2022-10-22T07:51:36.383Z,3.67
2022-10-22T07:54:04.263Z,3.25
2022-10-22T07:56:33.421Z,2.50
2022-10-22T08:01:37.716Z,3.03
2022-10-22T08:04:08.452Z,3.40
2022-10-22T08:06:36.452Z,2.97
2022-10-22T08:09:07.306Z,2.50
2022-10-22T08:11:34.786Z,3.97
2022-10-22T08:14:04.451Z,2.55
2022-10-22T08:16:34.404Z,2.63
2022-10-22T08:19:09.429Z,4.28
2022-10-22T08:21:36.857Z,3.10
2022-10-22T08:26:41.413Z,3.67
2022-10-22T08:29:11.350Z,2.30
2022-10-22T08:31:41.447Z,3.00
2022-10-22T08:34:08.818Z,3.60
2022-10-22T08:36:36.290Z,3.17
2022-10-22T08:39:07.610Z,3.92
2022-10-22T08:41:41.297Z,1.98
2022-10-22T08:44:27.288Z,2.53
2022-10-22T08:46:54.807Z,3.13
2022-10-22T08:49:24.742Z,3.35
2022-10-22T08:51:54.054Z,2.83
2022-10-22T08:54:29.576Z,2.05
2022-10-22T08:57:02.821Z,2.20
2022-10-22T08:59:53.477Z,2.15
2022-10-22T09:02:33.756Z,3.22
2022-10-22T09:05:12.270Z,3.05
2022-10-22T09:07:42.012Z,2.78
2022-10-22T09:10:13.123Z,2.97
2022-10-22T09:12:42.536Z,3.40
2022-10-22T09:15:16.242Z,3.35
2022-10-22T09:17:51.673Z,2.88
2022-10-22T09:20:30.226Z,3.58
2022-10-22T09:23:11.782Z,3.28
2022-10-22T09:25:41.406Z,2.78
2022-10-22T09:28:13.395Z,4.25
2022-10-22T09:30:41.827Z,2.20
2022-10-22T09:33:22.747Z,3.13
2022-10-22T09:35:55.963Z,2.70
2022-10-22T09:38:32.771Z,2.97
2022-10-22T09:41:06.419Z,2.78
2022-10-22T09:43:37.356Z,4.57
2022-10-22T09:46:07.800Z,3.20
2022-10-22T09:48:40.342Z,2.65
2022-10-22T09:51:27.832Z,3.17
2022-10-22T09:53:59.588Z,3.33
2022-10-22T09:56:38.575Z,3.53
2022-10-22T10:01:41.093Z,2.90
2022-10-22T10:04:15.711Z,3.30
2022-10-22T10:06:46.077Z,4.05
2022-10-22T10:09:25.524Z,3.70
2022-10-22T10:12:11.638Z,3.45
2022-10-22T10:14:44.887Z,3.05
2022-10-22T10:17:48.851Z,2.58
2022-10-22T10:20:22.360Z,3.08
2022-10-22T10:23:18.596Z,2.55
2022-10-22T10:26:07.862Z,2.80
2022-10-22T10:28:38.071Z,3.47
2022-10-22T10:31:11.514Z,4.43
2022-10-22T10:34:05.719Z,2.03
2022-10-22T10:36:33.279Z,2.75
2022-10-22T10:39:24.132Z,3.33
2022-10-22T10:42:05.114Z,3.15
2022-10-22T10:44:41.177Z,3.80
2022-10-22T10:47:33.986Z,3.08
2022-10-22T10:50:24.504Z,2.63
2022-10-22T10:53:02.357Z,2.72
2022-10-22T10:55:38.008Z,2.65
2022-10-22T10:58:05.426Z,3.22
2022-10-22T11:00:41.514Z,2.60
2022-10-22T11:03:17.152Z,2.70
2022-10-22T11:06:07.989Z,1.65
2022-10-22T11:08:46.589Z,2.42
2022-10-22T11:11:25.686Z,3.05
2022-10-22T11:13:55.182Z,2.50
2022-10-22T11:16:38.653Z,1.83
2022-10-22T11:19:50.128Z,1.85
2022-10-22T11:22:26.789Z,2.33
2022-10-22T11:25:14.651Z,2.42
2022-10-22T11:27:50.743Z,2.42
2022-10-22T11:30:19.893Z,2.05
2022-10-22T11:32:49.737Z,2.20
2022-10-22T11:35:25.897Z,2.28
2022-10-22T11:37:57.664Z,2.00
2022-10-22T11:40:38.103Z,2.53
2022-10-22T11:43:08.217Z,2.22
2022-10-22T11:45:36.765Z,2.22
2022-10-22T11:48:08.917Z,2.50
2022-10-22T11:50:46.439Z,3.17
2022-10-22T11:53:16.140Z,1.73
2022-10-22T11:55:56.362Z,2.85
2022-10-22T11:58:34.405Z,2.78
2022-10-22T12:01:19.450Z,1.80
2022-10-22T12:03:53.579Z,2.38
2022-10-22T12:06:24.463Z,2.50
2022-10-22T12:08:59.615Z,2.38
2022-10-22T12:11:41.439Z,1.77
2022-10-22T12:14:22.506Z,2.65
2022-10-22T12:16:59.744Z,3.30
2022-10-22T12:19:31.196Z,2.17
2022-10-22T12:22:12.185Z,2.42
2022-10-22T12:24:44.650Z,2.22
2022-10-22T12:27:28.073Z,3.08
2022-10-22T12:29:59.390Z,2.80
2022-10-22T12:32:42.501Z,3.33
2022-10-22T12:35:17.248Z,3.63
2022-10-22T12:37:44.987Z,3.60
2022-10-22T12:40:24.242Z,2.28
2022-10-22T12:42:55.723Z,3.47
2022-10-22T12:45:25.126Z,2.92
2022-10-22T12:47:56.880Z,3.13
2022-10-22T12:50:34.325Z,3.58
2022-10-22T12:53:04.213Z,3.28
2022-10-22T12:55:42.872Z,2.00
2022-10-22T12:58:18.247Z,3.83
2022-10-22T13:00:48.673Z,3.17
2022-10-22T13:03:38.453Z,2.35
2022-10-22T13:06:21.004Z,3.47
2022-10-22T13:09:03.293Z,3.17
2022-10-22T13:11:49.593Z,3.08
2022-10-22T13:14:26.252Z,3.45
2022-10-22T13:17:14.909Z,4.15
2022-10-22T13:19:44.791Z,5.22
2022-10-22T13:22:34.624Z,3.60
2022-10-22T13:25:14.208Z,3.13
2022-10-22T13:27:46.551Z,3.33
2022-10-22T13:30:26.909Z,3.53
2022-10-22T13:33:04.587Z,3.08
2022-10-22T13:35:40.516Z,4.72
2022-10-22T13:38:18.882Z,2.90
2022-10-22T13:40:46.475Z,4.20
2022-10-22T13:43:15.028Z,3.60
2022-10-22T13:45:44.596Z,4.70
2022-10-22T13:48:25.653Z,4.95
2022-10-22T13:50:53.892Z,4.95
2022-10-22T13:53:29.499Z,5.50
2022-10-22T13:56:01.292Z,4.95
2022-10-22T13:58:28.781Z,5.20
2022-10-22T14:01:01.880Z,4.53
2022-10-22T14:03:33.170Z,3.95
2022-10-22T14:06:04.775Z,5.03
2022-10-22T14:08:40.383Z,4.25
2022-10-22T14:11:08.010Z,4.45
2022-10-22T14:13:45.234Z,3.13
2022-10-22T14:16:23.288Z,2.70
2022-10-22T14:18:56.012Z,3.80
2022-10-22T14:21:26.145Z,2.78
2022-10-22T14:23:56.088Z,3.08
2022-10-22T14:26:32.095Z,4.53
2022-10-22T14:29:09.207Z,3.75
2022-10-22T14:31:44.567Z,2.80
2022-10-22T14:34:24.324Z,5.28
2022-10-22T14:37:02.563Z,2.65
2022-10-22T14:40:10.667Z,2.47
2022-10-22T14:42:40.726Z,2.80
2022-10-22T14:45:16.971Z,3.75
2022-10-22T14:47:57.540Z,4.13
2022-10-22T14:50:25.625Z,3.50
2022-10-22T14:52:54.905Z,3.60
2022-10-22T14:55:28.486Z,2.15
2022-10-22T14:58:01.988Z,3.17
2022-10-22T15:00:29.537Z,4.10
2022-10-22T15:02:58.827Z,2.55
2022-10-22T15:05:29.530Z,2.60
2022-10-22T15:07:59.247Z,3.13
2022-10-22T15:10:27.264Z,3.88
2022-10-22T15:12:54.672Z,4.47
2022-10-22T15:15:32.768Z,3.15
2022-10-22T15:18:06.437Z,3.67
2022-10-22T15:20:33.786Z,3.20
2022-10-22T15:23:01.110Z,5.45
2022-10-22T15:25:29.130Z,4.75
2022-10-22T15:28:01.854Z,3.58
2022-10-22T15:30:34.969Z,4.15
2022-10-22T15:33:03.951Z,3.85
2022-10-22T15:38:03.223Z,3.35
2022-10-22T15:40:30.679Z,3.53
2022-10-22T15:42:59.945Z,3.38
2022-10-22T15:45:29.865Z,4.15
2022-10-22T15:48:01.016Z,3.25
2022-10-22T15:50:28.499Z,2.50
2022-10-22T15:52:58.338Z,4.03
2022-10-22T15:55:25.814Z,3.22
2022-10-22T15:57:58.072Z,3.42
2022-10-22T16:00:28.174Z,4.30
2022-10-22T16:02:56.756Z,3.83
2022-10-22T16:05:24.213Z,3.30
2022-10-22T16:07:56.920Z,4.10
2022-10-22T16:10:24.653Z,3.10
2022-10-22T16:12:54.642Z,4.78
2022-10-22T16:15:24.536Z,4.93
2022-10-22T16:17:52.610Z,5.00
2022-10-22T16:20:21.122Z,6.00
2022-10-22T16:22:50.193Z,3.10
2022-10-22T16:25:17.647Z,5.57
2022-10-22T16:28:00.282Z,3.65
2022-10-22T16:30:27.719Z,3.60
2022-10-22T16:32:55.093Z,3.65
2022-10-22T16:35:22.465Z,3.00
2022-10-22T16:37:50.191Z,3.38
2022-10-22T16:40:20.406Z,4.55
2022-10-22T16:42:48.884Z,2.95
2022-10-22T16:45:21.869Z,3.13
2022-10-22T16:47:51.769Z,2.97
2022-10-22T16:50:19.664Z,3.00
2022-10-22T16:52:49.192Z,2.72
2022-10-22T16:55:16.802Z,5.20
2022-10-22T16:57:49.308Z,3.08
2022-10-22T17:00:21.983Z,2.75
2022-10-22T17:02:57.156Z,3.00
2022-10-22T17:05:29.355Z,4.00
2022-10-22T17:08:00.930Z,3.13
2022-10-22T17:10:35.858Z,2.65
2022-10-22T17:13:08.299Z,3.92
2022-10-22T17:15:38.407Z,3.63
2022-10-22T17:18:07.543Z,3.20
2022-10-22T17:20:35.456Z,3.03
2022-10-22T17:23:03.792Z,3.08
2022-10-22T17:25:38.349Z,2.58
2022-10-22T17:28:06.169Z,2.55
2022-10-22T17:30:42.384Z,2.63
2022-10-22T17:33:14.762Z,3.08
2022-10-22T17:35:43.289Z,3.45
2022-10-22T17:38:18.213Z,2.92
2022-10-22T17:40:46.589Z,3.25
2022-10-22T17:43:17.683Z,3.95
2022-10-22T17:45:58.689Z,3.80
2022-10-22T17:48:32.261Z,4.35
2022-10-22T17:51:00.204Z,3.47
2022-10-22T17:53:32.331Z,3.40
2022-10-22T17:56:06.106Z,3.70
2022-10-22T17:58:35.847Z,4.97
2022-10-22T18:01:09.892Z,4.07
2022-10-22T18:03:37.918Z,4.97
2022-10-22T18:06:10.597Z,4.45
2022-10-22T18:08:40.858Z,5.47
2022-10-22T18:11:09.848Z,4.72
2022-10-22T18:13:38.767Z,5.75
2022-10-22T18:16:12.169Z,4.00
2022-10-22T18:18:39.961Z,4.00
2022-10-22T18:21:13.170Z,5.65
2022-10-22T18:23:52.586Z,3.80
2022-10-22T18:26:26.869Z,3.80
2022-10-22T18:28:57.647Z,4.55
2022-10-22T18:31:29.002Z,3.70
2022-10-22T18:34:02.905Z,4.97
2022-10-22T18:36:35.742Z,2.67
2022-10-22T18:39:15.892Z,4.20
2022-10-22T18:41:45.749Z,3.15
2022-10-22T18:44:17.327Z,3.15
2022-10-22T18:46:48.890Z,2.25
2022-10-22T18:49:19.022Z,3.00
2022-10-22T18:51:49.446Z,2.28
2022-10-22T18:54:38.751Z,2.03
2022-10-22T18:57:08.929Z,4.40
2022-10-22T18:59:41.596Z,3.13
2022-10-22T19:02:17.398Z,1.98
2022-10-22T19:04:49.739Z,3.53
2022-10-22T19:07:35.660Z,2.55
2022-10-22T19:10:07.953Z,3.83
2022-10-22T19:12:47.233Z,2.55
2022-10-22T19:17:54.480Z,1.85
2022-10-22T19:20:24.135Z,2.78
2022-10-22T19:23:03.028Z,2.20
2022-10-22T19:28:20.247Z,2.83
2022-10-22T19:30:52.156Z,2.65
2022-10-22T19:33:23.950Z,2.15
2022-10-22T19:35:59.683Z,3.55
2022-10-22T19:38:40.826Z,2.20
2022-10-22T19:41:18.511Z,2.97
2022-10-22T19:44:06.864Z,2.20
2022-10-22T19:46:37.784Z,3.33
2022-10-22T19:49:13.702Z,2.55
2022-10-22T19:51:50.533Z,3.15
2022-10-22T19:54:27.922Z,2.08
2022-10-22T19:57:14.528Z,0.93
2022-10-22T19:59:54.383Z,2.35
2022-10-22T20:02:29.372Z,1.98
2022-10-22T20:05:05.763Z,2.63
2022-10-22T20:07:52.131Z,2.00
2022-10-22T20:10:28.177Z,1.27
2022-10-22T20:13:05.432Z,2.30
2022-10-22T20:15:44.485Z,1.83
2022-10-22T20:20:53.028Z,1.92
2022-10-22T20:23:38.802Z,1.35
2022-10-22T20:26:15.249Z,1.30
2022-10-22T20:28:49.252Z,1.48
2022-10-22T20:31:30.387Z,2.33
2022-10-22T20:34:05.273Z,1.88
2022-10-22T20:37:05.974Z,1.83
2022-10-22T20:39:57.238Z,1.08
2022-10-22T20:42:35.549Z,1.73
2022-10-22T20:45:45.535Z,1.02
2022-10-22T20:49:03.582Z,1.33
2022-10-22T20:51:15.905Z,1.25
2022-10-22T20:54:14.401Z,2.72
2022-10-22T20:56:59.362Z,0.88
2022-10-22T20:59:34.556Z,1.38
2022-10-22T21:02:13.939Z,1.20
2022-10-22T21:04:45.599Z,0.93
2022-10-22T21:07:15.109Z,1.27
2022-10-22T21:10:12.165Z,1.33
2022-10-22T21:12:53.421Z,0.63
2022-10-22T21:15:36.145Z,0.75
2022-10-22T21:18:21.661Z,1.63
2022-10-22T21:20:49.150Z,2.03
2022-10-22T21:23:22.327Z,1.05
2022-10-22T21:26:38.148Z,0.82
2022-10-22T21:29:12.630Z,1.92
2022-10-22T21:31:44.044Z,1.10
2022-10-22T21:34:38.894Z,1.52
2022-10-22T21:37:19.810Z,1.10
2022-10-22T21:40:12.768Z,1.00
2022-10-22T21:45:53.551Z,1.10
2022-10-22T21:48:38.939Z,0.30
2022-10-22T21:51:19.216Z,0.90
2022-10-22T21:54:01.698Z,0.32
2022-10-22T21:56:38.848Z,0.63
2022-10-22T21:59:10.309Z,1.17
2022-10-22T22:01:45.879Z,0.50
2022-10-22T22:09:49.000Z,0.52
2022-10-22T22:12:39.139Z,0.55
2022-10-22T22:17:53.811Z,1.25
2022-10-22T22:21:15.452Z,0.77
2022-10-22T22:23:39.670Z,0.68
2022-10-22T22:26:11.704Z,0.55
2022-10-22T22:29:03.173Z,0.50
2022-10-22T22:31:49.891Z,0.43
2022-10-22T22:34:26.934Z,0.55
2022-10-22T22:37:09.200Z,0.55
2022-10-22T22:39:46.723Z,0.52
2022-10-22T22:42:26.951Z,0.57
2022-10-22T22:45:41.433Z,0.40
2022-10-22T22:48:12.295Z,0.38
2022-10-22T22:50:44.976Z,0.73
2022-10-22T22:53:36.775Z,0.30
2022-10-22T22:56:43.159Z,0.50
2022-10-22T22:59:20.096Z,0.55
2022-10-22T23:02:07.000Z,0.32
2022-10-22T23:04:53.150Z,0.90
2022-10-22T23:07:40.117Z,0.32
2022-10-22T23:10:28.038Z,1.48
2022-10-22T23:13:13.601Z,0.82
2022-10-22T23:19:13.518Z,0.20
2022-10-22T23:21:41.794Z,0.65
2022-10-22T23:24:26.565Z,0.65
2022-10-22T23:27:17.113Z,0.40
2022-10-22T23:35:43.447Z,0.43
2022-10-22T23:39:07.022Z,1.48
2022-10-22T23:41:10.639Z,0.28
2022-10-22T23:46:41.161Z,0.32
2022-10-22T23:49:23.343Z,0.43
2022-10-22T23:52:15.937Z,0.30
2022-10-22T23:55:17.576Z,0.30
2022-10-22T23:57:47.545Z,0.47
